Time;durP1;ratioP1;P1;durP2;ratioP2;P2;SDS_P1;SDS_P2;PMS_P1;PMS_P2;Temp;Humidity;BMP_temperature;BMP_pressure;BME280_temperature;BME280_humidity;BME280_pressure;Samples;Min_cycle;Max_cycle;Signal;HPM_P1;HPM_P2
2022/10/07 00:01:03;;;;;;;5.20;1.37;;;9.80;99.90;;;;;;5066060;28;20202;-42
2022/10/07 00:03:30;;;;;;;2.23;1.23;;;9.80;99.90;;;;;;5064400;28;20384;-45
2022/10/07 00:06:01;;;;;;;9.10;1.50;;;9.80;99.90;;;;;;5058840;28;20198;-42
2022/10/07 00:08:28;;;;;;;7.00;1.33;;;9.80;99.90;;;;;;5044557;28;20227;-43
2022/10/07 00:10:55;;;;;;;4.97;1.40;;;9.80;99.90;;;;;;5045814;28;20302;-46
2022/10/07 00:13:22;;;;;;;7.13;1.30;;;9.70;99.90;;;;;;5039351;28;20195;-45
2022/10/07 00:15:49;;;;;;;3.73;1.20;;;9.60;99.90;;;;;;5044841;28;20200;-42
2022/10/07 00:18:17;;;;;;;7.23;1.60;;;9.60;99.90;;;;;;5059695;28;20233;-45
2022/10/07 00:20:44;;;;;;;6.67;1.17;;;9.60;99.90;;;;;;5053862;28;20205;-42
2022/10/07 00:23:11;;;;;;;4.20;1.37;;;9.50;99.90;;;;;;5049634;28;20202;-46
2022/10/07 00:25:38;;;;;;;7.30;1.23;;;9.50;99.90;;;;;;5057326;28;20208;-42
2022/10/07 00:28:05;;;;;;;5.73;1.47;;;9.50;99.90;;;;;;5057480;28;20249;-42
2022/10/07 00:30:32;;;;;;;2.03;1.20;;;9.50;99.90;;;;;;5062342;28;20733;-41
2022/10/07 00:32:59;;;;;;;7.63;1.80;;;9.50;99.90;;;;;;5061981;28;20193;-42
2022/10/07 00:35:27;;;;;;;5.27;1.50;;;9.50;99.90;;;;;;5051103;28;21065;-43
2022/10/07 00:37:55;;;;;;;5.43;1.60;;;9.50;99.90;;;;;;5062830;28;20215;-42
2022/10/07 00:40:21;;;;;;;3.80;1.30;;;9.50;99.90;;;;;;5043625;28;20800;-42
2022/10/07 00:42:49;;;;;;;3.80;1.33;;;9.50;99.90;;;;;;5058624;28;20213;-42
2022/10/07 00:45:18;;;;;;;8.57;2.00;;;9.50;99.90;;;;;;5066374;28;20198;-42
2022/10/07 00:47:46;;;;;;;6.40;1.53;;;9.50;99.90;;;;;;5062988;28;20293;-42
2022/10/07 00:50:17;;;;;;;3.73;1.67;;;9.50;99.90;;;;;;5049811;28;20819;-41
2022/10/07 00:52:49;;;;;;;6.07;1.80;;;9.40;99.90;;;;;;5062584;28;20195;-42
2022/10/07 00:55:20;;;;;;;7.07;1.80;;;9.40;99.90;;;;;;5045897;28;20210;-41
2022/10/07 00:57:48;;;;;;;6.43;1.77;;;9.40;99.90;;;;;;5055265;28;20590;-42
2022/10/07 01:00:16;;;;;;;6.37;1.80;;;9.40;99.90;;;;;;5057874;28;20187;-42
2022/10/07 01:02:43;;;;;;;4.47;1.63;;;9.40;99.90;;;;;;5063370;28;20199;-42
2022/10/07 01:05:13;;;;;;;4.90;2.00;;;9.40;99.90;;;;;;5053704;28;20214;-42
2022/10/07 01:07:43;;;;;;;8.23;1.63;;;9.40;99.90;;;;;;5041501;28;20231;-43
2022/10/07 01:10:14;;;;;;;4.53;1.63;;;9.40;99.90;;;;;;5031200;28;20187;-42
2022/10/07 01:12:56;;;;;;;4.73;1.63;;;9.40;99.90;;;;;;5053400;28;20248;-42
2022/10/07 01:15:31;;;;;;;4.77;1.57;;;9.40;99.90;;;;;;5064954;28;20293;-44
2022/10/07 01:18:06;;;;;;;4.67;1.67;;;9.40;99.90;;;;;;5081981;28;20570;-42
2022/10/07 01:20:39;;;;;;;3.60;1.60;;;9.30;99.90;;;;;;5081025;28;20232;-43
2022/10/07 01:23:30;;;;;;;3.33;1.60;;;9.30;99.90;;;;;;5056423;28;20202;-42
2022/10/07 01:26:13;;;;;;;6.17;1.63;;;9.30;99.90;;;;;;5064853;28;20206;-44
2022/10/07 01:28:46;;;;;;;7.40;2.37;;;9.30;99.90;;;;;;5052646;28;20309;-42
2022/10/07 01:31:19;;;;;;;1.93;1.50;;;9.20;99.90;;;;;;5038672;28;20415;-43
2022/10/07 01:33:47;;;;;;;6.40;2.00;;;9.20;99.90;;;;;;5044537;28;21002;-42
2022/10/07 01:36:17;;;;;;;2.57;1.43;;;9.20;99.90;;;;;;5041404;28;20188;-42
2022/10/07 01:38:49;;;;;;;3.63;1.50;;;9.10;99.90;;;;;;5056774;28;20237;-42
2022/10/07 01:41:20;;;;;;;6.90;1.63;;;9.20;99.90;;;;;;5048473;28;20326;-44
2022/10/07 01:43:51;;;;;;;5.90;1.73;;;9.20;99.90;;;;;;5065028;28;20269;-42
2022/10/07 01:46:22;;;;;;;4.23;1.73;;;9.20;99.90;;;;;;5051671;28;20338;-43
2022/10/07 01:48:50;;;;;;;9.43;2.40;;;9.20;99.90;;;;;;5058848;28;20542;-43
2022/10/07 01:51:22;;;;;;;7.70;1.80;;;9.20;99.90;;;;;;5063020;28;20594;-42
2022/10/07 01:53:56;;;;;;;6.13;1.97;;;9.20;99.90;;;;;;5053496;28;20202;-42
2022/10/07 01:56:40;;;;;;;7.97;1.87;;;9.20;99.90;;;;;;5055331;28;20198;-44
2022/10/07 01:59:26;;;;;;;4.33;1.43;;;9.20;99.90;;;;;;5052820;28;20207;-43
2022/10/07 02:02:01;;;;;;;7.80;2.23;;;9.10;99.90;;;;;;5062021;28;20210;-41
2022/10/07 02:04:47;;;;;;;7.57;1.57;;;9.00;99.90;;;;;;5060691;28;20221;-43
2022/10/07 02:07:26;;;;;;;5.90;1.60;;;8.90;99.90;;;;;;5058958;28;20203;-42
2022/10/07 02:10:01;;;;;;;4.03;1.43;;;8.80;99.90;;;;;;5070794;28;20315;-44
2022/10/07 02:12:33;;;;;;;3.87;1.50;;;;;;;;;;5059504;28;20259;-42
2022/10/07 02:15:09;;;;;;;5.90;1.67;;;8.70;99.90;;;;;;5070692;28;20222;-44
2022/10/07 02:17:42;;;;;;;6.27;1.87;;;8.70;99.90;;;;;;5060450;28;20392;-41
2022/10/07 02:20:12;;;;;;;7.17;2.00;;;8.60;99.90;;;;;;5065775;28;20218;-43
2022/10/07 02:22:41;;;;;;;8.70;2.00;;;8.60;99.90;;;;;;5055410;28;20317;-42
2022/10/07 02:25:11;;;;;;;5.47;1.97;;;8.60;99.90;;;;;;5066863;28;20213;-41
2022/10/07 02:27:40;;;;;;;4.37;2.30;;;8.60;99.90;;;;;;5059893;28;20321;-41
2022/10/07 02:30:13;;;;;;;3.90;1.60;;;8.60;99.90;;;;;;5074290;28;20198;-44
2022/10/07 02:32:44;;;;;;;9.87;2.20;;;8.60;99.90;;;;;;5054705;28;20210;-41
2022/10/07 02:35:18;;;;;;;8.17;2.43;;;8.50;99.90;;;;;;5063341;28;20234;-43
2022/10/07 02:37:49;;;;;;;4.00;2.27;;;8.50;99.90;;;;;;5061480;28;20219;-41
2022/10/07 02:40:16;;;;;;;5.10;2.10;;;8.50;99.90;;;;;;5053729;28;20202;-44
2022/10/07 02:42:53;;;;;;;8.10;2.47;;;8.40;99.90;;;;;;5050425;28;21725;-42
2022/10/07 02:45:27;;;;;;;6.47;2.17;;;8.50;99.90;;;;;;5058969;28;20727;-44
2022/10/07 02:47:59;;;;;;;7.90;2.30;;;8.50;99.90;;;;;;5063893;28;20237;-41
2022/10/07 02:50:34;;;;;;;8.00;2.30;;;8.40;99.90;;;;;;5061230;28;20195;-44
2022/10/07 02:53:03;;;;;;;5.50;2.27;;;8.40;99.90;;;;;;5063667;28;20256;-41
2022/10/07 02:55:31;;;;;;;9.07;2.60;;;8.40;99.90;;;;;;5050984;28;20672;-46
2022/10/07 02:58:02;;;;;;;5.87;2.47;;;8.40;99.90;;;;;;5063724;28;20218;-46
2022/10/07 03:00:34;;;;;;;4.37;2.10;;;8.40;99.90;;;;;;5060871;28;20275;-41
2022/10/07 03:03:03;;;;;;;3.87;2.20;;;8.40;99.90;;;;;;5064723;28;20207;-42
2022/10/07 03:05:51;;;;;;;4.60;2.10;;;8.30;99.90;;;;;;5061986;28;20198;-41
2022/10/07 03:08:21;;;;;;;3.83;1.97;;;8.30;99.90;;;;;;5062663;28;20215;-42
2022/10/07 03:10:49;;;;;;;3.93;2.37;;;8.30;99.90;;;;;;5055631;28;20191;-45
2022/10/07 03:13:16;;;;;;;5.73;2.60;;;8.20;99.90;;;;;;5068583;28;20690;-42
2022/10/07 03:15:49;;;;;;;7.93;2.40;;;8.20;99.90;;;;;;5064005;28;20198;-42
2022/10/07 03:18:27;;;;;;;6.83;2.53;;;8.20;99.90;;;;;;5059912;28;20245;-42
2022/10/07 03:21:08;;;;;;;6.77;2.50;;;8.20;99.90;;;;;;5063001;28;20194;-41
2022/10/07 03:23:37;;;;;;;6.47;2.70;;;8.20;99.90;;;;;;5057872;28;20187;-42
2022/10/07 03:26:04;;;;;;;5.13;2.70;;;8.10;99.90;;;;;;5067997;28;20201;-43
2022/10/07 03:28:36;;;;;;;7.67;2.57;;;8.10;99.90;;;;;;5064616;28;20226;-43
2022/10/07 03:31:06;;;;;;;8.77;2.50;;;8.10;99.90;;;;;;5048605;28;20688;-42
2022/10/07 03:33:34;;;;;;;7.13;2.57;;;8.10;99.90;;;;;;5042661;28;20211;-42
2022/10/07 03:36:01;;;;;;;6.80;3.60;;;8.10;99.90;;;;;;5064441;28;20245;-46
2022/10/07 03:38:28;;;;;;;8.33;3.40;;;8.10;99.90;;;;;;5061053;28;20667;-43
2022/10/07 03:40:55;;;;;;;10.57;3.13;;;8.00;99.90;;;;;;5062041;28;20221;-46
2022/10/07 03:43:24;;;;;;;8.93;3.43;;;8.00;99.90;;;;;;5062659;28;20652;-46
2022/10/07 03:45:51;;;;;;;5.17;2.70;;;8.00;99.90;;;;;;5053664;28;20226;-42
2022/10/07 03:48:20;;;;;;;7.93;2.80;;;8.00;99.90;;;;;;5043169;28;20225;-43
2022/10/07 03:50:51;;;;;;;3.43;2.30;;;8.00;99.90;;;;;;5059865;28;20252;-42
2022/10/07 03:53:18;;;;;;;7.27;2.67;;;8.00;99.90;;;;;;5060384;28;20206;-44
2022/10/07 03:55:45;;;;;;;6.07;2.73;;;8.00;99.90;;;;;;5054485;28;20195;-45
2022/10/07 03:58:12;;;;;;;4.00;2.50;;;8.00;99.90;;;;;;5053341;28;20706;-42
2022/10/07 04:00:40;;;;;;;7.97;2.97;;;8.00;99.90;;;;;;5040962;28;21948;-43
2022/10/07 04:03:08;;;;;;;8.30;2.97;;;8.00;99.90;;;;;;5072985;28;20685;-43
2022/10/07 04:05:36;;;;;;;5.97;2.60;;;7.90;99.90;;;;;;5053402;28;20207;-42
2022/10/07 04:08:05;;;;;;;6.60;3.10;;;7.90;99.90;;;;;;5062443;28;20218;-45
2022/10/07 04:10:35;;;;;;;7.00;2.60;;;7.90;99.90;;;;;;5065826;28;20199;-45
2022/10/07 04:13:02;;;;;;;6.50;2.83;;;7.90;99.90;;;;;;5061860;28;20222;-42
2022/10/07 04:15:29;;;;;;;8.23;3.07;;;7.90;99.90;;;;;;5046764;28;20201;-43
2022/10/07 04:17:58;;;;;;;6.20;2.90;;;7.80;99.90;;;;;;5069833;28;20225;-43
2022/10/07 04:20:26;;;;;;;7.57;2.50;;;7.80;99.90;;;;;;5064950;28;20298;-42
2022/10/07 04:22:56;;;;;;;6.03;2.47;;;7.80;99.90;;;;;;5060437;28;20206;-44
2022/10/07 04:25:36;;;;;;;7.00;2.93;;;7.80;99.90;;;;;;5059510;28;20840;-42
2022/10/07 04:28:15;;;;;;;8.13;3.50;;;7.80;99.90;;;;;;5057679;28;20232;-42
2022/10/07 04:30:47;;;;;;;5.73;2.77;;;7.80;99.90;;;;;;5054239;28;20206;-41
2022/10/07 04:33:15;;;;;;;8.30;3.27;;;7.80;99.90;;;;;;5047541;28;20241;-42
2022/10/07 04:35:43;;;;;;;8.63;2.83;;;7.80;99.90;;;;;;5048768;28;20293;-42
2022/10/07 04:38:13;;;;;;;7.33;3.40;;;7.80;99.90;;;;;;5061838;28;20579;-41
2022/10/07 04:40:43;;;;;;;6.83;2.70;;;7.80;99.90;;;;;;5058076;28;20276;-42
2022/10/07 04:43:19;;;;;;;8.57;3.17;;;7.90;99.90;;;;;;5056557;28;20210;-42
2022/10/07 04:45:52;;;;;;;5.43;2.50;;;7.90;99.90;;;;;;5054822;28;20223;-45
2022/10/07 04:48:21;;;;;;;6.27;2.57;;;7.90;99.90;;;;;;5044714;28;20239;-42
2022/10/07 04:50:48;;;;;;;9.43;3.07;;;7.90;99.90;;;;;;5072841;28;20182;-42
2022/10/07 04:53:16;;;;;;;6.47;2.70;;;7.90;99.90;;;;;;5060505;28;20226;-43
2022/10/07 04:55:47;;;;;;;7.47;2.50;;;7.90;99.90;;;;;;5058314;28;20191;-42
2022/10/07 04:58:15;;;;;;;7.53;2.27;;;7.90;99.90;;;;;;5057294;28;20230;-41
2022/10/07 05:00:43;;;;;;;7.90;2.73;;;7.90;99.90;;;;;;5058581;28;20183;-43
2022/10/07 05:03:12;;;;;;;8.27;2.30;;;7.90;99.90;;;;;;5056144;28;20583;-42
2022/10/07 05:05:41;;;;;;;5.23;2.47;;;7.80;99.90;;;;;;5047262;28;20424;-42
2022/10/07 05:08:08;;;;;;;6.20;2.90;;;7.80;99.90;;;;;;5050467;28;20223;-42
2022/10/07 05:10:37;;;;;;;4.83;2.50;;;7.80;99.90;;;;;;5061581;28;20187;-44
2022/10/07 05:13:04;;;;;;;4.33;2.80;;;7.80;99.90;;;;;;5064902;28;20560;-42
2022/10/07 05:15:31;;;;;;;4.73;2.47;;;7.80;99.90;;;;;;5058116;28;20206;-45
2022/10/07 05:17:59;;;;;;;10.07;2.73;;;7.80;99.90;;;;;;5059194;28;20297;-42
2022/10/07 05:20:27;;;;;;;4.27;1.97;;;7.80;99.90;;;;;;5042438;28;20700;-41
2022/10/07 05:22:55;;;;;;;6.20;2.33;;;7.80;99.90;;;;;;5064200;28;20309;-41
2022/10/07 05:25:22;;;;;;;6.40;2.37;;;7.80;99.90;;;;;;5056160;28;20214;-42
2022/10/07 05:27:53;;;;;;;7.57;2.37;;;7.80;99.90;;;;;;5057936;28;20207;-42
2022/10/07 05:30:21;;;;;;;8.53;2.40;;;7.80;99.90;;;;;;5058169;28;20226;-42
2022/10/07 05:32:49;;;;;;;7.63;2.80;;;7.80;99.90;;;;;;5057497;28;21402;-42
2022/10/07 05:35:16;;;;;;;7.13;3.17;;;7.80;99.90;;;;;;5055709;28;20206;-42
2022/10/07 05:37:43;;;;;;;7.07;2.40;;;7.90;99.90;;;;;;5081861;28;21081;-42
2022/10/07 05:40:10;;;;;;;5.13;2.17;;;7.90;99.90;;;;;;5062072;28;20205;-42
2022/10/07 05:42:37;;;;;;;3.50;2.30;;;7.90;99.90;;;;;;5060688;28;20187;-41
2022/10/07 05:45:09;;;;;;;6.23;2.17;;;7.90;99.90;;;;;;5052913;28;20293;-42
2022/10/07 05:47:36;;;;;;;7.80;2.40;;;7.90;99.90;;;;;;5061894;28;20763;-41
2022/10/07 05:50:05;;;;;;;8.27;3.20;;;7.90;99.90;;;;;;5044145;28;20294;-41
2022/10/07 05:52:34;;;;;;;6.33;2.73;;;7.90;99.90;;;;;;5046138;28;20310;-42
2022/10/07 05:55:02;;;;;;;9.20;2.97;;;7.90;99.90;;;;;;5043867;28;20223;-41
2022/10/07 05:57:30;;;;;;;8.77;3.17;;;7.90;99.90;;;;;;5061311;28;20191;-45
2022/10/07 05:59:58;;;;;;;7.07;2.30;;;7.90;99.90;;;;;;5064482;28;20324;-41
2022/10/07 06:02:28;;;;;;;9.50;2.63;;;7.90;99.90;;;;;;5057144;28;20206;-41
2022/10/07 06:04:55;;;;;;;2.70;2.07;;;7.90;99.90;;;;;;5043942;28;20212;-41
2022/10/07 06:07:24;;;;;;;5.37;2.53;;;8.00;99.90;;;;;;5051262;28;20218;-44
2022/10/07 06:15:22;;;;;;;4.47;2.30;;;8.00;99.90;;;;;;5054777;28;20191;-43
2022/10/07 06:17:50;;;;;;;6.40;2.40;;;8.00;99.90;;;;;;5050448;28;20241;-42
2022/10/07 06:20:19;;;;;;;6.30;2.30;;;8.10;99.90;;;;;;5044589;28;20611;-42
2022/10/07 06:22:48;;;;;;;5.63;2.50;;;8.10;99.90;;;;;;5051931;28;20191;-42
2022/10/07 06:25:18;;;;;;;7.13;2.40;;;8.10;99.90;;;;;;5061109;28;20413;-43
2022/10/07 06:27:46;;;;;;;7.17;2.50;;;8.20;99.90;;;;;;5056418;28;20250;-42
2022/10/07 06:30:13;;;;;;;10.47;2.50;;;8.20;99.90;;;;;;5066857;28;20289;-42
2022/10/07 06:32:41;;;;;;;7.60;3.03;;;8.30;99.90;;;;;;5068462;28;20978;-43
2022/10/07 06:35:09;;;;;;;6.00;2.67;;;8.30;99.90;;;;;;5063575;28;20745;-42
2022/10/07 06:37:38;;;;;;;5.20;2.37;;;8.30;99.90;;;;;;5038086;28;20203;-42
2022/10/07 06:40:06;;;;;;;7.17;2.97;;;8.40;99.90;;;;;;5056765;28;20195;-45
2022/10/07 06:42:33;;;;;;;7.97;2.40;;;8.40;99.90;;;;;;5048608;28;20191;-42
2022/10/07 06:45:22;;;;;;;5.20;2.23;;;8.50;99.90;;;;;;5051780;28;20206;-42
2022/10/07 06:47:51;;;;;;;10.33;2.60;;;8.60;99.90;;;;;;5052487;28;20254;-42
2022/10/07 06:50:20;;;;;;;11.47;2.70;;;8.70;99.90;;;;;;5056182;28;20206;-41
2022/10/07 06:52:47;;;;;;;6.27;2.33;;;8.80;99.90;;;;;;5042254;28;20318;-42
2022/10/07 06:55:14;;;;;;;8.03;2.20;;;8.90;99.90;;;;;;5054577;28;20702;-42
2022/10/07 06:57:42;;;;;;;7.90;2.87;;;9.00;99.90;;;;;;5062080;28;20272;-44
2022/10/07 07:00:12;;;;;;;4.93;2.37;;;9.10;99.90;;;;;;5055616;28;20209;-42
2022/10/07 07:02:40;;;;;;;7.23;3.03;;;9.20;99.90;;;;;;5047989;28;20902;-43
2022/10/07 07:05:07;;;;;;;8.93;3.20;;;9.30;99.90;;;;;;5059574;28;20199;-42
2022/10/07 07:07:37;;;;;;;9.67;2.90;;;9.40;99.90;;;;;;5031904;28;20203;-42
2022/10/07 07:10:05;;;;;;;8.50;2.43;;;9.50;99.90;;;;;;5052647;28;20577;-41
2022/10/07 07:12:33;;;;;;;7.50;2.37;;;9.60;99.90;;;;;;5047630;28;20218;-45
2022/10/07 07:15:01;;;;;;;5.93;2.20;;;9.70;99.90;;;;;;5056528;28;20186;-42
2022/10/07 07:17:28;;;;;;;13.03;2.10;;;9.90;99.90;;;;;;5054439;28;20203;-41
2022/10/07 07:19:55;;;;;;;6.70;2.30;;;10.00;99.90;;;;;;5061455;28;20207;-42
2022/10/07 07:22:22;;;;;;;5.60;2.17;;;10.10;99.90;;;;;;5045909;28;20210;-41
2022/10/07 07:24:52;;;;;;;12.27;2.37;;;10.20;99.90;;;;;;5043506;28;20320;-41
2022/10/07 07:27:20;;;;;;;9.03;2.47;;;10.30;99.90;;;;;;5049340;28;20260;-42
2022/10/07 07:29:49;;;;;;;9.00;2.80;;;10.40;99.90;;;;;;5058097;28;20302;-42
2022/10/07 07:32:16;;;;;;;8.60;2.40;;;10.50;99.90;;;;;;5060393;28;20328;-41
2022/10/07 07:34:44;;;;;;;10.63;2.60;;;10.70;99.90;;;;;;5053499;28;20218;-42
2022/10/07 07:37:17;;;;;;;8.03;2.53;;;10.80;99.90;;;;;;5052788;28;20198;-41
2022/10/07 07:39:48;;;;;;;10.13;2.73;;;10.90;99.90;;;;;;5044521;28;20198;-45
2022/10/07 07:42:18;;;;;;;10.00;2.73;;;11.00;99.90;;;;;;5047176;28;20817;-43
2022/10/07 07:44:45;;;;;;;7.13;2.37;;;11.10;99.90;;;;;;5054701;28;20206;-41
2022/10/07 07:47:16;;;;;;;8.37;2.93;;;11.20;99.90;;;;;;5054995;28;20236;-41
2022/10/07 07:49:44;;;;;;;10.20;2.97;;;11.30;99.90;;;;;;5053618;28;20992;-41
2022/10/07 07:52:17;;;;;;;10.40;2.53;;;11.40;99.90;;;;;;5050740;28;20252;-44
2022/10/07 07:54:47;;;;;;;11.67;2.77;;;11.50;99.90;;;;;;5045569;28;20203;-42
2022/10/07 07:57:14;;;;;;;8.63;2.33;;;11.60;99.90;;;;;;5051477;28;20197;-43
2022/10/07 07:59:43;;;;;;;5.20;2.17;;;11.70;99.90;;;;;;5049803;28;21034;-42
2022/10/07 08:02:11;;;;;;;10.50;2.60;;;11.80;99.90;;;;;;5061479;28;20236;-42
2022/10/07 08:04:42;;;;;;;5.17;1.70;;;11.90;99.90;;;;;;5058063;28;20190;-42
2022/10/07 08:07:11;;;;;;;6.07;2.07;;;12.00;99.90;;;;;;5062579;28;20224;-42
2022/10/07 08:09:39;;;;;;;9.87;2.07;;;12.00;99.90;;;;;;5045664;28;20314;-43
2022/10/07 08:12:08;;;;;;;13.17;2.87;;;12.00;99.90;;;;;;5082886;28;20281;-44
2022/10/07 08:14:35;;;;;;;12.13;3.23;;;12.00;99.90;;;;;;5061249;28;20229;-43
2022/10/07 08:17:04;;;;;;;6.80;3.23;;;12.00;99.90;;;;;;5055129;28;20202;-44
2022/10/07 08:19:31;;;;;;;8.53;2.40;;;12.00;99.90;;;;;;5038884;28;20250;-44
2022/10/07 08:21:59;;;;;;;8.53;2.10;;;12.00;99.90;;;;;;5043065;28;20226;-42
2022/10/07 08:24:29;;;;;;;7.70;1.97;;;12.00;99.90;;;;;;5031710;28;20195;-42
2022/10/07 08:26:55;;;;;;;10.20;2.90;;;12.00;99.90;;;;;;5078072;28;20206;-41
2022/10/07 08:29:23;;;;;;;10.37;2.67;;;12.00;99.90;;;;;;5078136;28;20694;-42
2022/10/07 08:31:50;;;;;;;6.27;1.73;;;12.00;99.90;;;;;;5057466;28;20281;-42
2022/10/07 08:34:18;;;;;;;6.00;1.90;;;12.00;99.90;;;;;;5056232;28;20706;-40
2022/10/07 08:36:46;;;;;;;8.67;2.37;;;12.00;99.90;;;;;;5051415;28;20503;-44
2022/10/07 08:39:14;;;;;;;6.83;1.90;;;12.10;99.90;;;;;;5053782;28;20218;-42
2022/10/07 08:42:02;;;;;;;6.20;1.90;;;12.20;99.90;;;;;;5049356;28;20228;-42
2022/10/07 08:44:34;;;;;;;5.03;1.90;;;12.30;99.90;;;;;;5077569;28;20257;-44
2022/10/07 08:47:09;;;;;;;5.80;1.67;;;12.50;99.90;;;;;;5069015;28;20561;-41
2022/10/07 08:49:47;;;;;;;5.97;2.00;;;12.60;99.90;;;;;;5063279;28;20209;-43
2022/10/07 08:52:32;;;;;;;7.50;1.77;;;;;;;;;;5066962;28;20198;-42
2022/10/07 08:55:01;;;;;;;5.40;1.53;;;12.80;99.90;;;;;;5066034;28;20194;-42
2022/10/07 08:57:42;;;;;;;10.40;2.33;;;12.90;99.90;;;;;;5056205;28;20214;-43
2022/10/07 09:00:14;;;;;;;4.90;1.53;;;12.90;99.90;;;;;;5087552;28;20702;-45
2022/10/07 09:02:52;;;;;;;9.37;2.60;;;12.90;99.90;;;;;;5058229;28;20714;-45
2022/10/07 09:05:26;;;;;;;10.93;2.70;;;13.00;99.90;;;;;;5062844;28;20190;-43
2022/10/07 09:07:57;;;;;;;7.10;2.13;;;13.10;99.90;;;;;;5056651;28;20218;-43
2022/10/07 09:10:31;;;;;;;8.97;1.57;;;13.20;99.90;;;;;;5070935;28;20217;-42
2022/10/07 09:13:02;;;;;;;7.97;2.03;;;13.30;99.90;;;;;;5058233;28;20210;-43
2022/10/07 09:15:38;;;;;;;7.47;2.57;;;13.30;99.90;;;;;;5083115;28;20216;-42
2022/10/07 09:18:15;;;;;;;8.17;2.37;;;13.40;99.90;;;;;;5066990;28;20253;-42
2022/10/07 09:20:46;;;;;;;9.03;2.00;;;13.50;99.90;;;;;;5070299;28;20197;-43
2022/10/07 09:23:14;;;;;;;5.37;1.70;;;13.50;99.90;;;;;;5045651;28;20204;-43
2022/10/07 09:25:42;;;;;;;12.43;2.07;;;13.60;99.90;;;;;;5046876;28;20197;-42
2022/10/07 09:28:12;;;;;;;7.80;2.43;;;13.60;99.90;;;;;;5069420;28;20222;-42
2022/10/07 09:30:41;;;;;;;7.27;2.30;;;13.60;99.90;;;;;;5082602;28;20190;-42
2022/10/07 09:33:15;;;;;;;6.40;2.17;;;13.60;99.90;;;;;;5065852;28;20238;-41
2022/10/07 09:35:52;;;;;;;5.60;1.67;;;13.80;99.90;;;;;;5062956;28;20377;-42
2022/10/07 09:38:30;;;;;;;6.03;2.03;;;13.90;99.90;;;;;;5064953;28;20202;-44
2022/10/07 09:41:22;;;;;;;5.90;1.53;;;13.90;99.90;;;;;;5072827;28;20604;-43
2022/10/07 09:44:03;;;;;;;7.37;2.00;;;14.20;99.90;;;;;;5053537;28;20249;-42
2022/10/07 09:46:46;;;;;;;8.00;2.00;;;14.30;99.90;;;;;;5083135;28;20228;-45
2022/10/07 09:49:39;;;;;;;6.80;2.33;;;14.40;99.90;;;;;;5063474;28;20245;-43
2022/10/07 09:52:17;;;;;;;4.87;1.67;;;14.50;99.90;;;;;;5066294;28;20186;-44
2022/10/07 09:54:45;;;;;;;7.73;2.03;;;14.60;99.90;;;;;;5060701;28;20951;-42
2022/10/07 09:57:24;;;;;;;6.47;2.63;;;14.70;99.90;;;;;;5064313;28;20198;-45
2022/10/07 09:59:53;;;;;;;4.03;1.70;;;14.70;99.90;;;;;;5055154;28;20205;-42
2022/10/07 10:02:24;;;;;;;10.00;2.33;;;14.80;99.90;;;;;;5084272;28;20202;-43
2022/10/07 10:04:52;;;;;;;7.63;2.33;;;14.90;99.90;;;;;;5060622;28;20194;-42
2022/10/07 10:07:25;;;;;;;7.67;1.70;;;14.90;99.90;;;;;;5064797;28;20209;-45
2022/10/07 10:09:53;;;;;;;6.90;1.57;;;15.00;99.90;;;;;;5064385;28;20179;-47
2022/10/07 10:12:23;;;;;;;8.47;1.60;;;15.00;99.90;;;;;;5063818;28;20798;-42
2022/10/07 10:14:51;;;;;;;12.43;2.20;;;15.00;99.90;;;;;;5051179;28;20272;-42
2022/10/07 10:17:29;;;;;;;8.87;1.97;;;15.00;99.90;;;;;;5084932;28;20667;-44
2022/10/07 10:20:16;;;;;;;8.03;1.80;;;15.10;99.90;;;;;;5077400;28;20212;-42
2022/10/07 10:22:44;;;;;;;4.37;1.60;;;15.10;99.90;;;;;;5082068;28;20201;-42
2022/10/07 10:28:04;;;;;;;8.03;1.73;;;15.20;99.90;;;;;;5076254;28;20217;-41
2022/10/07 10:30:32;;;;;;;9.83;2.70;;;15.30;99.90;;;;;;5054518;28;20210;-42
2022/10/07 10:33:21;;;;;;;8.30;1.67;;;15.30;99.90;;;;;;5083538;28;20198;-46
2022/10/07 10:35:55;;;;;;;5.13;2.20;;;15.30;99.90;;;;;;5065884;28;20252;-42
2022/10/07 10:38:32;;;;;;;8.53;2.37;;;15.40;99.90;;;;;;5055829;28;20237;-45
2022/10/07 10:41:06;;;;;;;7.67;1.97;;;15.50;99.90;;;;;;5054172;28;20204;-42
2022/10/07 10:43:44;;;;;;;7.97;2.07;;;15.50;99.90;;;;;;5046849;28;20223;-47
2022/10/07 10:46:25;;;;;;;9.10;2.97;;;15.60;99.90;;;;;;5041436;28;20280;-41
2022/10/07 10:49:00;;;;;;;6.87;2.30;;;15.60;99.90;;;;;;5052718;28;20692;-44
2022/10/07 10:51:47;;;;;;;8.97;2.03;;;15.70;99.90;;;;;;5052701;28;20199;-42
2022/10/07 10:54:26;;;;;;;7.90;1.97;;;15.70;99.90;;;;;;5048895;28;20223;-43
2022/10/07 10:56:58;;;;;;;6.10;1.50;;;15.70;99.90;;;;;;5051700;28;20194;-43
2022/10/07 10:59:54;;;;;;;4.10;1.47;;;15.70;99.90;;;;;;5054572;28;20238;-42
2022/10/07 11:02:45;;;;;;;6.87;1.77;;;15.80;99.90;;;;;;5037207;28;20264;-42
2022/10/07 11:05:16;;;;;;;8.73;2.63;;;15.70;99.90;;;;;;5021589;28;20249;-42
2022/10/07 11:07:47;;;;;;;5.13;2.43;;;15.70;99.90;;;;;;5051638;28;20218;-42
2022/10/07 11:10:20;;;;;;;4.53;1.43;;;15.80;99.90;;;;;;5056628;28;20203;-42
2022/10/07 11:12:55;;;;;;;8.47;1.50;;;15.90;99.90;;;;;;5056072;28;20196;-44
2022/10/07 11:15:26;;;;;;;6.97;1.50;;;16.00;99.90;;;;;;5042120;28;20221;-43
2022/10/07 11:17:54;;;;;;;11.00;2.03;;;;;;;;;;5058870;28;20211;-44
2022/10/07 11:20:24;;;;;;;12.30;2.43;;;;;;;;;;5052911;28;20198;-45
2022/10/07 11:22:55;;;;;;;4.57;1.57;;;;;;;;;;5052359;28;20207;-43
2022/10/07 11:25:28;;;;;;;4.47;1.30;;;;;;;;;;5057436;28;20273;-45
2022/10/07 11:27:59;;;;;;;4.43;1.50;;;;;;;;;;5057363;28;20218;-42
2022/10/07 11:30:37;;;;;;;9.00;2.03;;;;;;;;;;5052463;28;20285;-42
2022/10/07 11:33:07;;;;;;;5.10;1.63;;;;;;;;;;5048538;28;20202;-43
2022/10/07 11:35:35;;;;;;;7.47;1.77;;;;;;;;;;5053724;28;20226;-43
2022/10/07 11:38:06;;;;;;;8.20;2.00;;;;;;;;;;5052917;28;20237;-44
2022/10/07 11:40:41;;;;;;;11.00;1.87;;;;;;;;;;5057281;28;20210;-43
2022/10/07 11:43:11;;;;;;;6.17;1.60;;;;;;;;;;5061405;28;20555;-42
2022/10/07 11:45:42;;;;;;;8.13;1.50;;;;;;;;;;5054523;28;20207;-42
2022/10/07 11:48:11;;;;;;;5.77;1.10;;;;;;;;;;5045802;28;20229;-44
2022/10/07 11:50:40;;;;;;;7.57;2.20;;;;;;;;;;5051239;28;20204;-43
2022/10/07 11:53:08;;;;;;;6.40;1.30;;;;;;;;;;5055135;28;20199;-44
2022/10/07 11:55:41;;;;;;;6.93;1.90;;;;;;;;;;5045022;28;20222;-43
2022/10/07 11:58:22;;;;;;;6.40;1.50;;;;;;;;;;5056047;28;20218;-45
2022/10/07 12:00:49;;;;;;;4.37;1.50;;;;;;;;;;5051782;28;20230;-42
2022/10/07 12:03:32;;;;;;;7.17;1.90;;;;;;;;;;5041708;28;20187;-43
2022/10/07 12:06:10;;;;;;;5.83;1.60;;;;;;;;;;5051055;28;21285;-42
2022/10/07 12:08:40;;;;;;;7.40;1.97;;;;;;;;;;5048843;28;20233;-42
2022/10/07 12:11:41;;;;;;;6.97;2.07;;;;;;;;;;5046500;28;20203;-45
2022/10/07 12:14:38;;;;;;;6.40;1.47;;;;;;;;;;5051949;28;20222;-43
2022/10/07 12:17:24;;;;;;;6.20;1.47;;;;;;;;;;4995821;28;20296;-43
2022/10/07 12:20:10;;;;;;;6.90;2.03;;;;;;;;;;5038348;28;20211;-43
2022/10/07 12:22:38;;;;;;;6.67;1.60;;;;;;;;;;5055288;28;20194;-44
2022/10/07 12:25:38;;;;;;;9.17;1.77;;;;;;;;;;5054369;28;20206;-42
2022/10/07 12:28:06;;;;;;;7.00;1.30;;;;;;;;;;5015133;28;20231;-44
2022/10/07 12:30:41;;;;;;;3.60;1.90;;;;;;;;;;5010744;28;20197;-41
2022/10/07 12:33:16;;;;;;;7.80;2.23;;;;;;;;;;5026947;28;21092;-42
2022/10/07 12:35:46;;;;;;;7.30;1.77;;;;;;;;;;5038852;28;20222;-42
2022/10/07 12:38:15;;;;;;;7.73;1.60;;;;;;;;;;5051118;28;20218;-42
2022/10/07 12:40:44;;;;;;;6.17;2.37;;;;;;;;;;5053424;28;21028;-46
2022/10/07 12:43:19;;;;;;;6.70;1.60;;;;;;;;;;5058842;28;20194;-42
2022/10/07 12:45:46;;;;;;;5.27;1.97;;;;;;;;;;5057520;28;20663;-43
2022/10/07 12:48:15;;;;;;;6.27;1.60;;;;;;;;;;5051122;28;20210;-44
2022/10/07 12:50:45;;;;;;;7.70;1.30;;;;;;;;;;5039034;28;20212;-45
2022/10/07 12:53:12;;;;;;;7.40;2.13;;;;;;;;;;5052375;28;22320;-42
2022/10/07 12:55:42;;;;;;;8.93;1.93;;;;;;;;;;5047739;28;21918;-41
2022/10/07 13:01:13;;;;;;;6.40;1.63;;;;;;;;;;5056828;28;20198;-44
2022/10/07 13:04:01;;;;;;;4.63;1.73;;;;;;;;;;5058967;28;20325;-42
2022/10/07 13:06:40;;;;;;;3.60;1.50;;;;;;;;;;5038653;28;20210;-42
2022/10/07 13:09:18;;;;;;;9.40;2.13;;;;;;;;;;5057015;28;20222;-45
2022/10/07 13:12:14;;;;;;;9.00;1.50;;;17.80;99.90;;;;;;5049812;28;20217;-43
2022/10/07 13:14:54;;;;;;;5.20;1.50;;;17.80;99.90;;;;;;5053700;28;20324;-43
2022/10/07 13:17:35;;;;;;;5.97;1.60;;;17.80;99.90;;;;;;5053869;28;20544;-43
2022/10/07 13:20:15;;;;;;;6.17;1.80;;;17.80;99.90;;;;;;5060385;28;20190;-42
2022/10/07 13:22:47;;;;;;;6.70;1.83;;;17.70;99.90;;;;;;5042843;28;20942;-42
2022/10/07 13:25:17;;;;;;;6.17;2.13;;;18.30;99.90;;;;;;5056146;28;20187;-42
2022/10/07 13:27:50;;;;;;;7.47;1.87;;;18.70;99.90;;;;;;5052874;28;20599;-44
2022/10/07 13:30:32;;;;;;;3.13;1.70;;;;;;;;;;5053199;28;20285;-45
2022/10/07 13:33:12;;;;;;;5.47;1.50;;;;;;;;;;5048645;28;20718;-43
2022/10/07 13:35:40;;;;;;;7.23;1.63;;;;;;;;;;5056407;28;20211;-42
2022/10/07 13:38:22;;;;;;;8.60;1.77;;;;;;;;;;5047565;28;20612;-42
2022/10/07 13:41:01;;;;;;;7.33;2.17;;;;;;;;;;5049894;28;20199;-42
2022/10/07 13:43:29;;;;;;;7.70;1.87;;;;;;;;;;5058616;28;20286;-46